Diezeborg — PBBA — position and weather

sailwx.info

Track history (hours):
 
Tides and Currents Weather Stations Pressure Air Temp Water Temp Dewpoint Dewpoint Depression Visibility Wind Speed Wind Dir Waves Ship Positions

Diezeborg

Last reported at 2018-Aug-19 19:48 UTC. Time now 2018-Aug-19 23:12 UTC.
Position N 56°17' E 016°58'.

Length 133 m; draft 6.3 m.

Type: Cargo ship. MMSI: 245250000.

Date/timePositionNaut miles runAvg speedWind from/ knotsBaromVisibWave heightAir tempDewpointWater temp
2018-Aug-19 19:48N 56°17' E 016°58'311.4
2018-Aug-19 19:30N 56°14' E 016°56'2410.7
2018-Aug-19 17:18N 55°58' E 016°26'311.2
2018-Aug-19 17:00N 55°56' E 016°21'611.1
2018-Aug-19 16:30N 55°53' E 016°12'611.1
2018-Aug-19 16:01N 55°51' E 016°04'611.3
2018-Aug-19 15:30N 55°48' E 015°55'611.3
2018-Aug-19 15:00N 55°45' E 015°46'611.3
2018-Aug-19 14:30N 55°42' E 015°38'611.3
2018-Aug-19 14:01N 55°39' E 015°29'611.2
2018-Aug-19 13:30N 55°37' E 015°20'611.2
2018-Aug-19 13:00N 55°34' E 015°12'611.6
2018-Aug-19 12:30N 55°31' E 015°03'611.8
2018-Aug-19 12:00N 55°28' E 014°53'611.5
2018-Aug-19 11:30N 55°25' E 014°45'611.4
2018-Aug-19 11:00N 55°22' E 014°36'611.4
2018-Aug-19 10:30N 55°18' E 014°30'611.6
2018-Aug-19 10:00N 55°13' E 014°23'510.9
2018-Aug-19 09:30N 55°10' E 014°15'611.3
2018-Aug-19 09:01N 55°10' E 014°06'611.3
2018-Aug-19 08:31N 55°10' E 013°56'3411.4
2018-Aug-19 05:33N 55°15' E 012°57'111.8
2018-Aug-19 05:29N 55°15' E 012°56'711.7
2018-Aug-19 04:55N 55°16' E 012°45'410.8
2018-Aug-19 04:30N 55°19' E 012°38'611.3
2018-Aug-19 04:00N 55°25' E 012°40'611.6
2018-Aug-19 03:30N 55°30' E 012°41'510.3
2018-Aug-19 03:00N 55°35' E 012°42'5 9.8
2018-Aug-19 02:30N 55°40' E 012°41'611.3
2018-Aug-19 02:00N 55°46' E 012°41'611.6
2018-Aug-19 01:30N 55°52' E 012°40'611.8
2018-Aug-19 01:00N 55°57' E 012°38'611.2
2018-Aug-19 00:30N 56°03' E 012°39'611.5
2018-Aug-19 00:01N 56°07' E 012°31'611.2
2018-Aug-18 23:30N 56°10' E 012°23'5210.0
2018-Aug-18 18:21N 56°57' E 011°44'411.1
2018-Aug-18 18:01N 57°01' E 011°42'611.5
2018-Aug-18 17:30N 57°06' E 011°39'611.3
2018-Aug-18 17:01N 57°12' E 011°36'611.8
2018-Aug-18 16:31N 57°17' E 011°33'611.8
2018-Aug-18 16:01N 57°23' E 011°28'611.5
2018-Aug-18 15:31N 57°28' E 011°24'611.6
2018-Aug-18 15:00N 57°32' E 011°16'611.9
2018-Aug-18 14:30N 57°36' E 011°07'612.2
2018-Aug-18 14:00N 57°40' E 010°59'611.9
2018-Aug-18 13:31N 57°44' E 010°51'612.0
2018-Aug-18 13:00N 57°48' E 010°42'813.1
2018-Aug-18 12:23N 57°48' E 010°27'30912.0
2018-Aug-17 10:39N 53°42' E 004°53'413.0
2018-Aug-17 10:22N 53°39' E 004°51'513.2
2018-Aug-17 10:00N 53°34' E 004°48'713.3
2018-Aug-17 09:30N 53°28' E 004°44'713.6
2018-Aug-17 09:00N 53°22' E 004°39'713.7
2018-Aug-17 08:30N 53°15' E 004°34'714.0
2018-Aug-17 08:00N 53°09' E 004°30'714.0
2018-Aug-17 07:30N 53°03' E 004°24'713.8
2018-Aug-17 07:00N 52°57' E 004°19'713.5
2018-Aug-17 06:30N 52°51' E 004°14'713.4
2018-Aug-17 05:59N 52°45' E 004°07'713.2
2018-Aug-17 05:29N 52°40' E 004°01'612.8
2018-Aug-17 05:00N 52°34' E 003°56'612.3
2018-Aug-17 04:30N 52°28' E 003°53'612.1
2018-Aug-17 04:00N 52°23' E 003°52'611.8
2018-Aug-17 03:30N 52°17' E 003°52'611.7
2018-Aug-17 03:00N 52°11' E 003°53'611.4
2018-Aug-17 02:30N 52°05' E 003°55'4 7.8
2018-Aug-17 02:00N 52°01' E 003°55'611.9
2018-Aug-17 01:30N 51°59' E 004°04'613.0
2018-Aug-17 01:00N 51°56' E 004°13'510.0
2018-Aug-17 00:30N 51°53' E 004°20'5 9.1
2018-Aug-17 00:00N 51°50' E 004°26'510.3
2018-Aug-16 23:30N 51°49' E 004°34'3 6.4
2018-Aug-16 23:00N 51°48' E 004°39'0 0.0
2018-Aug-16 22:30N 51°48' E 004°39'0 0.0
2018-Aug-16 22:00N 51°48' E 004°39'0 0.0
2018-Aug-16 21:30N 51°48' E 004°39'0 0.0
2018-Aug-16 21:00N 51°48' E 004°39'0 0.0
2018-Aug-16 20:30N 51°48' E 004°39'0 0.0
2018-Aug-16 20:00N 51°48' E 004°39'0 0.0
2018-Aug-16 19:30N 51°48' E 004°39'0 0.0
2018-Aug-16 19:00N 51°48' E 004°39'0 0.0
2018-Aug-16 18:30N 51°48' E 004°39'0 0.0
2018-Aug-16 18:00N 51°48' E 004°39'0 0.0
2018-Aug-16 17:30N 51°48' E 004°39'0 0.0
2018-Aug-16 17:00N 51°48' E 004°39'0 0.0
2018-Aug-16 16:30N 51°48' E 004°39'0 0.0
2018-Aug-16 16:00N 51°48' E 004°39'0 0.0
2018-Aug-16 15:30N 51°48' E 004°39'0 0.0
2018-Aug-16 15:00N 51°48' E 004°39'0 0.0
2018-Aug-16 14:30N 51°48' E 004°39'0 0.0
2018-Aug-16 14:00N 51°48' E 004°39'0 0.0
2018-Aug-16 13:30N 51°48' E 004°39'0 0.0
2018-Aug-16 13:00N 51°48' E 004°39'0 0.0
2018-Aug-16 12:30N 51°48' E 004°39'0 0.0
2018-Aug-16 11:57N 51°48' E 004°39'0 0.0
2018-Aug-16 11:30N 51°48' E 004°39'0 0.0
2018-Aug-16 11:00N 51°48' E 004°39'0 0.0
2018-Aug-16 10:30N 51°48' E 004°39'0 0.0
2018-Aug-16 10:00N 51°48' E 004°39'0 0.0
2018-Aug-16 09:30N 51°48' E 004°39'0 0.0
2018-Aug-16 09:00N 51°48' E 004°39'0 0.0
2018-Aug-16 08:30N 51°48' E 004°39'0 0.0
2018-Aug-16 08:00N 51°48' E 004°39'0 0.0
2018-Aug-16 07:30N 51°48' E 004°39'0 0.0
2018-Aug-16 07:00N 51°48' E 004°39'0 0.0
2018-Aug-16 06:30N 51°48' E 004°39'0 0.0
2018-Aug-16 06:00N 51°48' E 004°39'0 0.0
2018-Aug-16 05:30N 51°48' E 004°39'0 0.0
2018-Aug-16 05:00N 51°48' E 004°39'0 0.0
2018-Aug-16 04:30N 51°48' E 004°39'0 0.0
2018-Aug-16 04:00N 51°48' E 004°39'0 0.0
2018-Aug-16 03:30N 51°48' E 004°39'0 0.0
2018-Aug-16 03:00N 51°48' E 004°39'0 0.0
2018-Aug-16 02:30N 51°48' E 004°39'0 0.0
2018-Aug-16 02:00N 51°48' E 004°39'0 0.0
2018-Aug-16 01:30N 51°48' E 004°39'0 0.0
2018-Aug-16 01:00N 51°48' E 004°39'0 0.0
2018-Aug-16 00:30N 51°48' E 004°39'0 0.0
2018-Aug-16 00:00N 51°48' E 004°39'0 0.0
2018-Aug-15 23:30N 51°48' E 004°39'0 0.0
2018-Aug-15 23:00N 51°48' E 004°39'0 0.0
2018-Aug-15 22:30N 51°48' E 004°39'0 0.0
2018-Aug-15 22:00N 51°48' E 004°39'0 0.0
2018-Aug-15 21:30N 51°48' E 004°39'0 0.0
2018-Aug-15 21:00N 51°48' E 004°39'0 0.0
2018-Aug-15 20:30N 51°48' E 004°39'0 0.0
2018-Aug-15 20:00N 51°48' E 004°39'0 0.0
2018-Aug-15 19:30N 51°48' E 004°39'0 0.0
2018-Aug-15 19:00N 51°48' E 004°39'0 0.0
2018-Aug-15 18:30N 51°48' E 004°39'0 0.0
2018-Aug-15 18:00N 51°48' E 004°39'0 0.0
2018-Aug-15 17:30N 51°48' E 004°39'0 0.0
2018-Aug-15 17:00N 51°48' E 004°39'0 0.0
2018-Aug-15 16:30N 51°48' E 004°39'0 0.0
2018-Aug-15 16:00N 51°48' E 004°39'0 0.0
2018-Aug-15 15:30N 51°48' E 004°39'0 0.0
2018-Aug-15 15:00N 51°48' E 004°39'0 0.0
2018-Aug-15 14:30N 51°48' E 004°39'0 0.0
2018-Aug-15 14:00N 51°48' E 004°39'0 0.0
2018-Aug-15 13:30N 51°48' E 004°39'0 0.0
2018-Aug-15 13:00N 51°48' E 004°39'0 0.0
2018-Aug-15 12:30N 51°48' E 004°39'0 0.0
2018-Aug-15 12:00N 51°48' E 004°39'0 0.0
2018-Aug-15 11:30N 51°48' E 004°39'0 0.0
2018-Aug-15 11:00N 51°48' E 004°39'0 0.0
2018-Aug-15 10:30N 51°48' E 004°39'0 0.0
2018-Aug-15 10:00N 51°48' E 004°39'0 0.0
2018-Aug-15 09:30N 51°48' E 004°39'0 0.0
2018-Aug-15 09:00N 51°48' E 004°39'0 0.0
2018-Aug-15 08:24N 51°48' E 004°39'0 0.0
2018-Aug-15 08:00N 51°48' E 004°39'0 0.0
2018-Aug-15 07:30N 51°48' E 004°39'0 0.0
2018-Aug-15 07:00N 51°48' E 004°39'0 0.0
2018-Aug-15 06:30N 51°48' E 004°39'0 0.0
2018-Aug-15 06:00N 51°48' E 004°39'0 0.0
2018-Aug-15 05:30N 51°48' E 004°39'0 0.0
2018-Aug-15 05:00N 51°48' E 004°39'0 0.0
2018-Aug-15 04:30N 51°48' E 004°39'0 0.0
2018-Aug-15 04:00N 51°48' E 004°39'0 0.0
2018-Aug-15 03:30N 51°48' E 004°39'0 0.0
2018-Aug-15 03:00N 51°48' E 004°39'0 0.0
2018-Aug-15 02:30N 51°48' E 004°39'0 0.0
2018-Aug-15 02:00N 51°48' E 004°39'0 0.0
2018-Aug-15 01:30N 51°48' E 004°39'0 0.0
2018-Aug-15 01:00N 51°48' E 004°39'0 0.0
2018-Aug-15 00:30N 51°48' E 004°39'0 0.0
2018-Aug-15 00:00N 51°48' E 004°39'0 0.0
2018-Aug-14 23:30N 51°48' E 004°39'0 0.0
2018-Aug-14 23:00N 51°48' E 004°39'0 0.0
2018-Aug-14 22:30N 51°48' E 004°39'0 0.0
2018-Aug-14 22:00N 51°48' E 004°39'0 0.0
2018-Aug-14 21:30N 51°48' E 004°39'0 0.0
2018-Aug-14 21:00N 51°48' E 004°39'0 0.0
2018-Aug-14 20:30N 51°48' E 004°39'0 0.0
2018-Aug-14 20:00N 51°48' E 004°39'0 0.0
2018-Aug-14 19:30N 51°48' E 004°39'0 0.0
2018-Aug-14 19:00N 51°48' E 004°39'0 0.0
2018-Aug-14 18:30N 51°48' E 004°39'0 0.0
2018-Aug-14 18:00N 51°48' E 004°39'0 0.0
2018-Aug-14 17:30N 51°48' E 004°39'0 0.0
2018-Aug-14 17:00N 51°48' E 004°39'0 0.0
2018-Aug-14 16:30N 51°48' E 004°39'0 0.0
2018-Aug-14 16:01N 51°48' E 004°39'0 0.0
2018-Aug-14 15:31N 51°48' E 004°39'2 3.1
2018-Aug-14 15:01N 51°48' E 004°36'4 8.7
2018-Aug-14 14:31N 51°50' E 004°30'510.3
2018-Aug-14 14:01N 51°51' E 004°22'3 6.3
2018-Aug-14 13:31N 51°54' E 004°21'4 8.5
2018-Aug-14 13:00N 51°54' E 004°28'0 0.0
2018-Aug-14 12:30N 51°54' E 004°28'0 0.0
2018-Aug-14 12:00N 51°54' E 004°28'0 0.0
2018-Aug-14 11:30N 51°54' E 004°28'0 0.0
2018-Aug-14 11:00N 51°54' E 004°28'0 0.0
2018-Aug-14 10:30N 51°54' E 004°28'0 0.0
2018-Aug-14 10:00N 51°54' E 004°28'0 0.0
2018-Aug-14 09:30N 51°54' E 004°28'0 0.0
2018-Aug-14 09:00N 51°54' E 004°28'0 0.0
2018-Aug-14 08:30N 51°54' E 004°28'0 0.0
2018-Aug-14 08:00N 51°54' E 004°28'0 0.0
2018-Aug-14 07:30N 51°54' E 004°28'0 0.0
2018-Aug-14 07:00N 51°54' E 004°28'0 0.0
2018-Aug-14 06:30N 51°54' E 004°28'0 0.0
2018-Aug-14 06:00N 51°54' E 004°28'0 0.0
2018-Aug-14 05:30N 51°54' E 004°28'0 0.0
2018-Aug-14 05:00N 51°54' E 004°28'0 0.0
2018-Aug-14 04:30N 51°54' E 004°28'0 0.0
2018-Aug-14 04:00N 51°54' E 004°28'0 0.0
2018-Aug-14 03:30N 51°54' E 004°28'0 0.0
2018-Aug-14 03:00N 51°54' E 004°28'0 0.0
2018-Aug-14 02:30N 51°54' E 004°28'0 0.0
2018-Aug-14 02:00N 51°54' E 004°28'0 0.0
2018-Aug-14 01:30N 51°54' E 004°28'0 0.0
2018-Aug-14 01:00N 51°54' E 004°28'0 0.0
2018-Aug-14 00:30N 51°54' E 004°28'0 0.0
2018-Aug-14 00:00N 51°54' E 004°28'0 0.0
2018-Aug-13 23:30N 51°54' E 004°28'0 0.0
2018-Aug-13 23:00N 51°54' E 004°28'0 0.0
2018-Aug-13 22:30N 51°54' E 004°28'0 0.0
2018-Aug-13 22:00N 51°54' E 004°28'0 0.0
2018-Aug-13 21:30N 51°54' E 004°28'0 0.0
2018-Aug-13 21:00N 51°54' E 004°28'0 0.0
2018-Aug-13 20:30N 51°54' E 004°28'0 0.0
2018-Aug-13 20:00N 51°54' E 004°28'0 0.0
2018-Aug-13 19:30N 51°54' E 004°28'0 0.0
2018-Aug-13 19:00N 51°54' E 004°28'0 0.0
2018-Aug-13 18:30N 51°54' E 004°28'0 0.0
2018-Aug-13 18:00N 51°54' E 004°28'0 0.0
2018-Aug-13 17:30N 51°54' E 004°28'0 0.0
2018-Aug-13 17:00N 51°54' E 004°28'0 0.0
2018-Aug-13 16:30N 51°54' E 004°28'0 0.0
2018-Aug-13 16:00N 51°54' E 004°28'0 0.0
2018-Aug-13 15:30N 51°54' E 004°28'0 0.0
2018-Aug-13 15:00N 51°54' E 004°28'0 0.0
2018-Aug-13 14:30N 51°54' E 004°28'0 0.0
2018-Aug-13 14:00N 51°54' E 004°28'0 0.0
2018-Aug-13 13:30N 51°54' E 004°28'0 0.0
2018-Aug-13 13:00N 51°54' E 004°28'0 0.0
2018-Aug-13 12:30N 51°54' E 004°28'0 0.0
2018-Aug-13 12:00N 51°54' E 004°28'0 0.0
2018-Aug-13 11:30N 51°54' E 004°28'0 0.0
2018-Aug-13 11:00N 51°54' E 004°28'0 0.0
2018-Aug-13 10:30N 51°54' E 004°28'0 0.0
2018-Aug-13 10:00N 51°54' E 004°28'0 0.0
2018-Aug-13 09:30N 51°54' E 004°28'0 0.0
2018-Aug-13 09:00N 51°54' E 004°28'0 0.0
2018-Aug-13 08:30N 51°54' E 004°28'0 0.0
2018-Aug-13 08:00N 51°54' E 004°28'0 0.0
2018-Aug-13 07:30N 51°54' E 004°28'0 0.0
2018-Aug-13 07:00N 51°54' E 004°28'0 0.0
2018-Aug-13 06:30N 51°54' E 004°28'0 0.0
2018-Aug-13 06:00N 51°54' E 004°28'0 0.0
2018-Aug-13 05:30N 51°54' E 004°28'0 0.0
2018-Aug-13 05:00N 51°54' E 004°28'0 0.0
2018-Aug-13 04:30N 51°54' E 004°28'0 0.0
2018-Aug-13 04:00N 51°54' E 004°28'0 0.0
2018-Aug-13 03:30N 51°54' E 004°28'0 0.0
2018-Aug-13 03:00N 51°54' E 004°28'0 0.0
2018-Aug-13 02:30N 51°54' E 004°28'0 0.0
2018-Aug-13 02:00N 51°54' E 004°28'0 0.0
2018-Aug-13 01:30N 51°54' E 004°28'0 0.0
2018-Aug-13 01:00N 51°54' E 004°28'0 0.0
2018-Aug-13 00:30N 51°54' E 004°28'0 0.0
2018-Aug-13 00:00N 51°54' E 004°28'0 0.0
2018-Aug-12 23:30N 51°54' E 004°28'0 0.0
2018-Aug-12 23:00N 51°54' E 004°28'0 0.0
2018-Aug-12 22:30N 51°54' E 004°28'0 0.0
2018-Aug-12 22:00N 51°54' E 004°28'0 0.0
2018-Aug-12 21:30N 51°54' E 004°28'0 0.0
2018-Aug-12 21:00N 51°54' E 004°28'0 0.0
2018-Aug-12 20:30N 51°54' E 004°28'0 0.0
2018-Aug-12 20:00N 51°54' E 004°28'0 0.0
2018-Aug-12 19:30N 51°54' E 004°28'0 0.0
2018-Aug-12 19:00N 51°54' E 004°28'0 0.0
2018-Aug-12 18:30N 51°54' E 004°28'0 0.0
2018-Aug-12 18:00N 51°54' E 004°28'0 0.0
2018-Aug-12 17:30N 51°54' E 004°28'0 0.0
2018-Aug-12 16:57N 51°54' E 004°28'0 0.0
2018-Aug-12 16:30N 51°54' E 004°28'0 0.0
2018-Aug-12 16:00N 51°54' E 004°28'0 0.0
2018-Aug-12 15:30N 51°54' E 004°28'0 0.0
2018-Aug-12 15:00N 51°54' E 004°28'0 0.0
2018-Aug-12 14:30N 51°54' E 004°28'0 0.0
2018-Aug-12 14:00N 51°54' E 004°28'0 0.0
2018-Aug-12 13:30N 51°54' E 004°28'0 0.0
2018-Aug-12 13:00N 51°54' E 004°28'0 0.0
2018-Aug-12 12:30N 51°54' E 004°28'0 0.0
2018-Aug-12 12:00N 51°54' E 004°28'0 0.0
2018-Aug-12 11:30N 51°54' E 004°28'0 0.0
2018-Aug-12 11:00N 51°54' E 004°28'0 0.9
2018-Aug-12 10:29N 51°54' E 004°28'0 0.0
2018-Aug-12 09:59N 51°54' E 004°28'0 0.0
2018-Aug-12 09:29N 51°54' E 004°28'0 0.0
2018-Aug-12 08:59N 51°54' E 004°28'0 0.0
2018-Aug-12 08:29N 51°54' E 004°28'0 0.0
2018-Aug-12 07:59N 51°54' E 004°28'0 0.0
2018-Aug-12 07:29N 51°54' E 004°28'0 0.0
2018-Aug-12 06:59N 51°54' E 004°28'0 0.0
2018-Aug-12 06:29N 51°54' E 004°28'0 0.0
2018-Aug-12 05:59N 51°54' E 004°28'0 0.0
2018-Aug-12 05:29N 51°54' E 004°28'0 0.0
2018-Aug-12 04:59N 51°54' E 004°28'0 0.0
2018-Aug-12 04:29N 51°54' E 004°28'0 0.0
2018-Aug-12 03:59N 51°54' E 004°28'0 0.0
2018-Aug-12 03:29N 51°54' E 004°28'0 0.0
2018-Aug-12 02:59N 51°54' E 004°28'0 0.0
2018-Aug-12 02:29N 51°54' E 004°28'0 0.0
2018-Aug-12 01:59N 51°54' E 004°28'0 0.0
2018-Aug-12 01:29N 51°54' E 004°28'0 0.0
2018-Aug-12 00:59N 51°54' E 004°28'0 0.0
2018-Aug-12 00:29N 51°54' E 004°28'0 0.0
2018-Aug-11 23:59N 51°54' E 004°28'0 0.0
2018-Aug-11 23:29N 51°54' E 004°28'0 0.0
2018-Aug-11 22:59N 51°54' E 004°28'0 0.0
2018-Aug-11 22:29N 51°54' E 004°28'0 0.0
2018-Aug-11 21:59N 51°54' E 004°28'0 0.0
2018-Aug-11 21:29N 51°54' E 004°28'0 0.0
2018-Aug-11 20:59N 51°54' E 004°28'0 0.0
2018-Aug-11 20:29N 51°54' E 004°28'0 0.0
2018-Aug-11 19:59N 51°54' E 004°28'0 0.0
2018-Aug-11 19:29N 51°54' E 004°28'0 0.0
2018-Aug-11 18:59N 51°54' E 004°28'0 0.0
2018-Aug-11 18:29N 51°54' E 004°28'0 0.0
2018-Aug-11 17:59N 51°54' E 004°28'0 0.0
2018-Aug-11 17:29N 51°54' E 004°28'0 0.0
2018-Aug-11 16:59N 51°54' E 004°28'0 0.0
2018-Aug-11 16:29N 51°54' E 004°28'0 0.0
2018-Aug-11 15:59N 51°54' E 004°28'0 0.0
2018-Aug-11 15:29N 51°54' E 004°28'0 0.0
2018-Aug-11 14:59N 51°54' E 004°28'0 0.0
2018-Aug-11 14:29N 51°54' E 004°28'0 0.0
2018-Aug-11 13:59N 51°54' E 004°28'0 0.0
2018-Aug-11 13:29N 51°54' E 004°28'0 0.0
2018-Aug-11 12:59N 51°54' E 004°28'0 0.0
2018-Aug-11 12:29N 51°54' E 004°28'0 0.0
2018-Aug-11 11:59N 51°54' E 004°28'0 0.0
2018-Aug-11 11:29N 51°54' E 004°28'0 0.0
2018-Aug-11 10:59N 51°54' E 004°28'0 0.0
2018-Aug-11 10:29N 51°54' E 004°28'0 0.0
2018-Aug-11 09:59N 51°54' E 004°28'0 0.0
2018-Aug-11 09:29N 51°54' E 004°28'0 0.0
2018-Aug-11 08:59N 51°54' E 004°28'0 0.0
2018-Aug-11 08:29N 51°54' E 004°28'0 0.0
2018-Aug-11 07:59N 51°54' E 004°28'0 0.0
2018-Aug-11 07:29N 51°54' E 004°28'0 0.0
2018-Aug-11 06:59N 51°54' E 004°28'0 0.0
2018-Aug-11 06:29N 51°54' E 004°28'0 0.0
2018-Aug-11 05:59N 51°54' E 004°28'0 0.0
2018-Aug-11 05:29N 51°54' E 004°28'0 0.0
2018-Aug-11 04:59N 51°54' E 004°28'0 0.0
2018-Aug-11 04:29N 51°54' E 004°28'0 0.0
2018-Aug-11 03:59N 51°54' E 004°28'0 0.0
2018-Aug-11 03:29N 51°54' E 004°28'0 0.0
2018-Aug-11 03:00N 51°54' E 004°28'0 0.9
2018-Aug-11 02:30N 51°54' E 004°27'5 9.0
2018-Aug-11 02:00N 51°54' E 004°20'4 7.6
2018-Aug-11 01:30N 51°51' E 004°23'5 9.3
2018-Aug-11 01:00N 51°50' E 004°31'4 8.7
2018-Aug-11 00:30N 51°48' E 004°37'510.1
2018-Aug-11 00:00N 51°43' E 004°37'2 3.5
2018-Aug-10 23:28N 51°41' E 004°36'0 0.0
2018-Aug-10 22:58N 51°41' E 004°36'0 0.0
2018-Aug-10 22:28N 51°41' E 004°36'0 0.0
2018-Aug-10 21:58N 51°41' E 004°36'0 0.0
2018-Aug-10 21:28N 51°41' E 004°36'0 0.0
2018-Aug-10 20:58N 51°41' E 004°36'0 0.0
2018-Aug-10 20:28N 51°41' E 004°36'0 0.0
2018-Aug-10 19:58N 51°41' E 004°36'0 0.0
2018-Aug-10 19:28N 51°41' E 004°36'0 0.0
2018-Aug-10 18:58N 51°41' E 004°36'0 0.0
2018-Aug-10 18:28N 51°41' E 004°36'0 0.0
2018-Aug-10 17:58N 51°41' E 004°36'0 0.0
2018-Aug-10 17:28N 51°41' E 004°36'0 0.0
2018-Aug-10 16:58N 51°41' E 004°36'0 0.0
2018-Aug-10 16:28N 51°41' E 004°36'0 0.0
2018-Aug-10 15:58N 51°41' E 004°36'0 0.0
2018-Aug-10 15:28N 51°41' E 004°36'0 0.0
2018-Aug-10 14:58N 51°41' E 004°36'0 0.0
2018-Aug-10 14:28N 51°41' E 004°36'0 0.0
2018-Aug-10 13:58N 51°41' E 004°36'0 0.0
2018-Aug-10 13:28N 51°41' E 004°36'0 0.0
2018-Aug-10 12:55N 51°41' E 004°36'0 0.0
2018-Aug-10 12:25N 51°41' E 004°36'0 0.0
2018-Aug-10 11:58N 51°41' E 004°36'0 0.0
2018-Aug-10 11:25N 51°41' E 004°36'0 0.0
2018-Aug-10 10:55N 51°41' E 004°36'0 0.0
2018-Aug-10 10:25N 51°41' E 004°36'0 0.0
2018-Aug-10 09:49N 51°41' E 004°36'0 0.0
2018-Aug-10 09:28N 51°41' E 004°36'0 0.0
2018-Aug-10 08:55N 51°41' E 004°36'0 0.0
2018-Aug-10 08:28N 51°41' E 004°36'0 0.0
2018-Aug-10 07:58N 51°41' E 004°36'0 0.0
2018-Aug-10 07:28N 51°41' E 004°36'0 0.0
2018-Aug-10 06:58N 51°41' E 004°36'0 0.0
2018-Aug-10 06:28N 51°41' E 004°36'0 0.0
2018-Aug-10 05:58N 51°41' E 004°36'0 0.0
2018-Aug-10 05:28N 51°41' E 004°36'0 0.0
2018-Aug-10 04:58N 51°41' E 004°36'0 0.0
2018-Aug-10 04:28N 51°41' E 004°36'0 0.0
2018-Aug-10 03:58N 51°41' E 004°36'0 0.0
2018-Aug-10 03:25N 51°41' E 004°36'0 0.0
2018-Aug-10 02:58N 51°41' E 004°36'0 0.0
2018-Aug-10 02:28N 51°41' E 004°36'0 0.0
2018-Aug-10 01:58N 51°41' E 004°36'0 0.3
2018-Aug-10 01:30N 51°41' E 004°36'1 1.7
2018-Aug-10 01:00N 51°42' E 004°36'3 6.5
2018-Aug-10 00:30N 51°45' E 004°38'3 6.9
2018-Aug-10 00:00N 51°48' E 004°35'4 8.4
2018-Aug-09 23:30N 51°50' E 004°29'4 7.4
2018-Aug-09 23:00N 51°51' E 004°23'3 6.7
2018-Aug-09 22:30N 51°53' E 004°20'4 7.9
2018-Aug-09 22:00N 51°55' E 004°14'510.7
2018-Aug-09 21:30N 51°58' E 004°07'611.6
2018-Aug-09 21:00N 52°00' E 003°58'4 7.4
2018-Aug-09 20:30N 51°60' E 003°52'3 6.6
2018-Aug-09 20:00N 52°00' E 003°47'  
Track history (hours):
 
Tides and Currents Weather Stations Pressure Air Temp Water Temp Dewpoint Dewpoint Depression Visibility Wind Speed Wind Dir Waves Ship Positions

Diezeborg

Last reported at 2018-Aug-19 19:48 UTC. Time now 2018-Aug-19 23:12 UTC.
Position N 56°17' E 016°58'.

Length 133 m; draft 6.3 m.

Type: Cargo ship. MMSI: 245250000.

Date/timePositionNaut miles runAvg speedWind from/ knotsBaromVisibWave heightAir tempDewpointWater temp
2018-Aug-19 19:48N 56°17' E 016°58'311.4
2018-Aug-19 19:30N 56°14' E 016°56'2410.7
2018-Aug-19 17:18N 55°58' E 016°26'311.2
2018-Aug-19 17:00N 55°56' E 016°21'611.1
2018-Aug-19 16:30N 55°53' E 016°12'611.1
2018-Aug-19 16:01N 55°51' E 016°04'611.3
2018-Aug-19 15:30N 55°48' E 015°55'611.3
2018-Aug-19 15:00N 55°45' E 015°46'611.3
2018-Aug-19 14:30N 55°42' E 015°38'611.3
2018-Aug-19 14:01N 55°39' E 015°29'611.2
2018-Aug-19 13:30N 55°37' E 015°20'611.2
2018-Aug-19 13:00N 55°34' E 015°12'611.6
2018-Aug-19 12:30N 55°31' E 015°03'611.8
2018-Aug-19 12:00N 55°28' E 014°53'611.5
2018-Aug-19 11:30N 55°25' E 014°45'611.4
2018-Aug-19 11:00N 55°22' E 014°36'611.4
2018-Aug-19 10:30N 55°18' E 014°30'611.6
2018-Aug-19 10:00N 55°13' E 014°23'510.9
2018-Aug-19 09:30N 55°10' E 014°15'611.3
2018-Aug-19 09:01N 55°10' E 014°06'611.3
2018-Aug-19 08:31N 55°10' E 013°56'3411.4
2018-Aug-19 05:33N 55°15' E 012°57'111.8
2018-Aug-19 05:29N 55°15' E 012°56'711.7
2018-Aug-19 04:55N 55°16' E 012°45'410.8
2018-Aug-19 04:30N 55°19' E 012°38'611.3
2018-Aug-19 04:00N 55°25' E 012°40'611.6
2018-Aug-19 03:30N 55°30' E 012°41'510.3
2018-Aug-19 03:00N 55°35' E 012°42'5 9.8
2018-Aug-19 02:30N 55°40' E 012°41'611.3
2018-Aug-19 02:00N 55°46' E 012°41'611.6
2018-Aug-19 01:30N 55°52' E 012°40'611.8
2018-Aug-19 01:00N 55°57' E 012°38'611.2
2018-Aug-19 00:30N 56°03' E 012°39'611.5
2018-Aug-19 00:01N 56°07' E 012°31'611.2
2018-Aug-18 23:30N 56°10' E 012°23'5210.0
2018-Aug-18 18:21N 56°57' E 011°44'411.1
2018-Aug-18 18:01N 57°01' E 011°42'611.5
2018-Aug-18 17:30N 57°06' E 011°39'611.3
2018-Aug-18 17:01N 57°12' E 011°36'611.8
2018-Aug-18 16:31N 57°17' E 011°33'611.8
2018-Aug-18 16:01N 57°23' E 011°28'611.5
2018-Aug-18 15:31N 57°28' E 011°24'611.6
2018-Aug-18 15:00N 57°32' E 011°16'611.9
2018-Aug-18 14:30N 57°36' E 011°07'612.2
2018-Aug-18 14:00N 57°40' E 010°59'611.9
2018-Aug-18 13:31N 57°44' E 010°51'612.0
2018-Aug-18 13:00N 57°48' E 010°42'813.1
2018-Aug-18 12:23N 57°48' E 010°27'30912.0
2018-Aug-17 10:39N 53°42' E 004°53'413.0
2018-Aug-17 10:22N 53°39' E 004°51'513.2
2018-Aug-17 10:00N 53°34' E 004°48'713.3
2018-Aug-17 09:30N 53°28' E 004°44'713.6
2018-Aug-17 09:00N 53°22' E 004°39'713.7
2018-Aug-17 08:30N 53°15' E 004°34'714.0
2018-Aug-17 08:00N 53°09' E 004°30'714.0
2018-Aug-17 07:30N 53°03' E 004°24'713.8
2018-Aug-17 07:00N 52°57' E 004°19'713.5
2018-Aug-17 06:30N 52°51' E 004°14'713.4
2018-Aug-17 05:59N 52°45' E 004°07'713.2
2018-Aug-17 05:29N 52°40' E 004°01'612.8
2018-Aug-17 05:00N 52°34' E 003°56'612.3
2018-Aug-17 04:30N 52°28' E 003°53'612.1
2018-Aug-17 04:00N 52°23' E 003°52'611.8
2018-Aug-17 03:30N 52°17' E 003°52'611.7
2018-Aug-17 03:00N 52°11' E 003°53'611.4
2018-Aug-17 02:30N 52°05' E 003°55'4 7.8
2018-Aug-17 02:00N 52°01' E 003°55'611.9
2018-Aug-17 01:30N 51°59' E 004°04'613.0
2018-Aug-17 01:00N 51°56' E 004°13'510.0
2018-Aug-17 00:30N 51°53' E 004°20'5 9.1
2018-Aug-17 00:00N 51°50' E 004°26'510.3
2018-Aug-16 23:30N 51°49' E 004°34'3 6.4
2018-Aug-16 23:00N 51°48' E 004°39'0 0.0
2018-Aug-16 22:30N 51°48' E 004°39'0 0.0
2018-Aug-16 22:00N 51°48' E 004°39'0 0.0
2018-Aug-16 21:30N 51°48' E 004°39'0 0.0
2018-Aug-16 21:00N 51°48' E 004°39'0 0.0
2018-Aug-16 20:30N 51°48' E 004°39'0 0.0
2018-Aug-16 20:00N 51°48' E 004°39'0 0.0
2018-Aug-16 19:30N 51°48' E 004°39'0 0.0
2018-Aug-16 19:00N 51°48' E 004°39'0 0.0
2018-Aug-16 18:30N 51°48' E 004°39'0 0.0
2018-Aug-16 18:00N 51°48' E 004°39'0 0.0
2018-Aug-16 17:30N 51°48' E 004°39'0 0.0
2018-Aug-16 17:00N 51°48' E 004°39'0 0.0
2018-Aug-16 16:30N 51°48' E 004°39'0 0.0
2018-Aug-16 16:00N 51°48' E 004°39'0 0.0
2018-Aug-16 15:30N 51°48' E 004°39'0 0.0
2018-Aug-16 15:00N 51°48' E 004°39'0 0.0
2018-Aug-16 14:30N 51°48' E 004°39'0 0.0
2018-Aug-16 14:00N 51°48' E 004°39'0 0.0
2018-Aug-16 13:30N 51°48' E 004°39'0 0.0
2018-Aug-16 13:00N 51°48' E 004°39'0 0.0
2018-Aug-16 12:30N 51°48' E 004°39'0 0.0
2018-Aug-16 11:57N 51°48' E 004°39'0 0.0
2018-Aug-16 11:30N 51°48' E 004°39'0 0.0
2018-Aug-16 11:00N 51°48' E 004°39'0 0.0
2018-Aug-16 10:30N 51°48' E 004°39'0 0.0
2018-Aug-16 10:00N 51°48' E 004°39'0 0.0
2018-Aug-16 09:30N 51°48' E 004°39'0 0.0
2018-Aug-16 09:00N 51°48' E 004°39'0 0.0
2018-Aug-16 08:30N 51°48' E 004°39'0 0.0
2018-Aug-16 08:00N 51°48' E 004°39'0 0.0
2018-Aug-16 07:30N 51°48' E 004°39'0 0.0
2018-Aug-16 07:00N 51°48' E 004°39'0 0.0
2018-Aug-16 06:30N 51°48' E 004°39'0 0.0
2018-Aug-16 06:00N 51°48' E 004°39'0 0.0
2018-Aug-16 05:30N 51°48' E 004°39'0 0.0
2018-Aug-16 05:00N 51°48' E 004°39'0 0.0
2018-Aug-16 04:30N 51°48' E 004°39'0 0.0
2018-Aug-16 04:00N 51°48' E 004°39'0 0.0
2018-Aug-16 03:30N 51°48' E 004°39'0 0.0
2018-Aug-16 03:00N 51°48' E 004°39'0 0.0
2018-Aug-16 02:30N 51°48' E 004°39'0 0.0
2018-Aug-16 02:00N 51°48' E 004°39'0 0.0
2018-Aug-16 01:30N 51°48' E 004°39'0 0.0
2018-Aug-16 01:00N 51°48' E 004°39'0 0.0
2018-Aug-16 00:30N 51°48' E 004°39'0 0.0
2018-Aug-16 00:00N 51°48' E 004°39'0 0.0
2018-Aug-15 23:30N 51°48' E 004°39'0 0.0
2018-Aug-15 23:00N 51°48' E 004°39'0 0.0
2018-Aug-15 22:30N 51°48' E 004°39'0 0.0
2018-Aug-15 22:00N 51°48' E 004°39'0 0.0
2018-Aug-15 21:30N 51°48' E 004°39'0 0.0
2018-Aug-15 21:00N 51°48' E 004°39'0 0.0
2018-Aug-15 20:30N 51°48' E 004°39'0 0.0
2018-Aug-15 20:00N 51°48' E 004°39'0 0.0
2018-Aug-15 19:30N 51°48' E 004°39'0 0.0
2018-Aug-15 19:00N 51°48' E 004°39'0 0.0
2018-Aug-15 18:30N 51°48' E 004°39'0 0.0
2018-Aug-15 18:00N 51°48' E 004°39'0 0.0
2018-Aug-15 17:30N 51°48' E 004°39'0 0.0
2018-Aug-15 17:00N 51°48' E 004°39'0 0.0
2018-Aug-15 16:30N 51°48' E 004°39'0 0.0
2018-Aug-15 16:00N 51°48' E 004°39'0 0.0
2018-Aug-15 15:30N 51°48' E 004°39'0 0.0
2018-Aug-15 15:00N 51°48' E 004°39'0 0.0
2018-Aug-15 14:30N 51°48' E 004°39'0 0.0
2018-Aug-15 14:00N 51°48' E 004°39'0 0.0
2018-Aug-15 13:30N 51°48' E 004°39'0 0.0
2018-Aug-15 13:00N 51°48' E 004°39'0 0.0
2018-Aug-15 12:30N 51°48' E 004°39'0 0.0
2018-Aug-15 12:00N 51°48' E 004°39'0 0.0
2018-Aug-15 11:30N 51°48' E 004°39'0 0.0
2018-Aug-15 11:00N 51°48' E 004°39'0 0.0
2018-Aug-15 10:30N 51°48' E 004°39'0 0.0
2018-Aug-15 10:00N 51°48' E 004°39'0 0.0
2018-Aug-15 09:30N 51°48' E 004°39'0 0.0
2018-Aug-15 09:00N 51°48' E 004°39'0 0.0
2018-Aug-15 08:24N 51°48' E 004°39'0 0.0
2018-Aug-15 08:00N 51°48' E 004°39'0 0.0
2018-Aug-15 07:30N 51°48' E 004°39'0 0.0
2018-Aug-15 07:00N 51°48' E 004°39'0 0.0
2018-Aug-15 06:30N 51°48' E 004°39'0 0.0
2018-Aug-15 06:00N 51°48' E 004°39'0 0.0
2018-Aug-15 05:30N 51°48' E 004°39'0 0.0
2018-Aug-15 05:00N 51°48' E 004°39'0 0.0
2018-Aug-15 04:30N 51°48' E 004°39'0 0.0
2018-Aug-15 04:00N 51°48' E 004°39'0 0.0
2018-Aug-15 03:30N 51°48' E 004°39'0 0.0
2018-Aug-15 03:00N 51°48' E 004°39'0 0.0
2018-Aug-15 02:30N 51°48' E 004°39'0 0.0
2018-Aug-15 02:00N 51°48' E 004°39'0 0.0
2018-Aug-15 01:30N 51°48' E 004°39'0 0.0
2018-Aug-15 01:00N 51°48' E 004°39'0 0.0
2018-Aug-15 00:30N 51°48' E 004°39'0 0.0
2018-Aug-15 00:00N 51°48' E 004°39'0 0.0
2018-Aug-14 23:30N 51°48' E 004°39'0 0.0
2018-Aug-14 23:00N 51°48' E 004°39'0 0.0
2018-Aug-14 22:30N 51°48' E 004°39'0 0.0
2018-Aug-14 22:00N 51°48' E 004°39'0 0.0
2018-Aug-14 21:30N 51°48' E 004°39'0 0.0
2018-Aug-14 21:00N 51°48' E 004°39'0 0.0
2018-Aug-14 20:30N 51°48' E 004°39'0 0.0
2018-Aug-14 20:00N 51°48' E 004°39'0 0.0
2018-Aug-14 19:30N 51°48' E 004°39'0 0.0
2018-Aug-14 19:00N 51°48' E 004°39'0 0.0
2018-Aug-14 18:30N 51°48' E 004°39'0 0.0
2018-Aug-14 18:00N 51°48' E 004°39'0 0.0
2018-Aug-14 17:30N 51°48' E 004°39'0 0.0
2018-Aug-14 17:00N 51°48' E 004°39'0 0.0
2018-Aug-14 16:30N 51°48' E 004°39'0 0.0
2018-Aug-14 16:01N 51°48' E 004°39'0 0.0
2018-Aug-14 15:31N 51°48' E 004°39'2 3.1
2018-Aug-14 15:01N 51°48' E 004°36'4 8.7
2018-Aug-14 14:31N 51°50' E 004°30'510.3
2018-Aug-14 14:01N 51°51' E 004°22'3 6.3
2018-Aug-14 13:31N 51°54' E 004°21'4 8.5
2018-Aug-14 13:00N 51°54' E 004°28'0 0.0
2018-Aug-14 12:30N 51°54' E 004°28'0 0.0
2018-Aug-14 12:00N 51°54' E 004°28'0 0.0
2018-Aug-14 11:30N 51°54' E 004°28'0 0.0
2018-Aug-14 11:00N 51°54' E 004°28'0 0.0
2018-Aug-14 10:30N 51°54' E 004°28'0 0.0
2018-Aug-14 10:00N 51°54' E 004°28'0 0.0
2018-Aug-14 09:30N 51°54' E 004°28'0 0.0
2018-Aug-14 09:00N 51°54' E 004°28'0 0.0
2018-Aug-14 08:30N 51°54' E 004°28'0 0.0
2018-Aug-14 08:00N 51°54' E 004°28'0 0.0
2018-Aug-14 07:30N 51°54' E 004°28'0 0.0
2018-Aug-14 07:00N 51°54' E 004°28'0 0.0
2018-Aug-14 06:30N 51°54' E 004°28'0 0.0
2018-Aug-14 06:00N 51°54' E 004°28'0 0.0
2018-Aug-14 05:30N 51°54' E 004°28'0 0.0
2018-Aug-14 05:00N 51°54' E 004°28'0 0.0
2018-Aug-14 04:30N 51°54' E 004°28'0 0.0
2018-Aug-14 04:00N 51°54' E 004°28'0 0.0
2018-Aug-14 03:30N 51°54' E 004°28'0 0.0
2018-Aug-14 03:00N 51°54' E 004°28'0 0.0
2018-Aug-14 02:30N 51°54' E 004°28'0 0.0
2018-Aug-14 02:00N 51°54' E 004°28'0 0.0
2018-Aug-14 01:30N 51°54' E 004°28'0 0.0
2018-Aug-14 01:00N 51°54' E 004°28'0 0.0
2018-Aug-14 00:30N 51°54' E 004°28'0 0.0
2018-Aug-14 00:00N 51°54' E 004°28'0 0.0
2018-Aug-13 23:30N 51°54' E 004°28'0 0.0
2018-Aug-13 23:00N 51°54' E 004°28'0 0.0
2018-Aug-13 22:30N 51°54' E 004°28'0 0.0
2018-Aug-13 22:00N 51°54' E 004°28'0 0.0
2018-Aug-13 21:30N 51°54' E 004°28'0 0.0
2018-Aug-13 21:00N 51°54' E 004°28'0 0.0
2018-Aug-13 20:30N 51°54' E 004°28'0 0.0
2018-Aug-13 20:00N 51°54' E 004°28'0 0.0
2018-Aug-13 19:30N 51°54' E 004°28'0 0.0
2018-Aug-13 19:00N 51°54' E 004°28'0 0.0
2018-Aug-13 18:30N 51°54' E 004°28'0 0.0
2018-Aug-13 18:00N 51°54' E 004°28'0 0.0
2018-Aug-13 17:30N 51°54' E 004°28'0 0.0
2018-Aug-13 17:00N 51°54' E 004°28'0 0.0
2018-Aug-13 16:30N 51°54' E 004°28'0 0.0
2018-Aug-13 16:00N 51°54' E 004°28'0 0.0
2018-Aug-13 15:30N 51°54' E 004°28'0 0.0
2018-Aug-13 15:00N 51°54' E 004°28'0 0.0
2018-Aug-13 14:30N 51°54' E 004°28'0 0.0
2018-Aug-13 14:00N 51°54' E 004°28'0 0.0
2018-Aug-13 13:30N 51°54' E 004°28'0 0.0
2018-Aug-13 13:00N 51°54' E 004°28'0 0.0
2018-Aug-13 12:30N 51°54' E 004°28'0 0.0
2018-Aug-13 12:00N 51°54' E 004°28'0 0.0
2018-Aug-13 11:30N 51°54' E 004°28'0 0.0
2018-Aug-13 11:00N 51°54' E 004°28'0 0.0
2018-Aug-13 10:30N 51°54' E 004°28'0 0.0
2018-Aug-13 10:00N 51°54' E 004°28'0 0.0
2018-Aug-13 09:30N 51°54' E 004°28'0 0.0
2018-Aug-13 09:00N 51°54' E 004°28'0 0.0
2018-Aug-13 08:30N 51°54' E 004°28'0 0.0
2018-Aug-13 08:00N 51°54' E 004°28'0 0.0
2018-Aug-13 07:30N 51°54' E 004°28'0 0.0
2018-Aug-13 07:00N 51°54' E 004°28'0 0.0
2018-Aug-13 06:30N 51°54' E 004°28'0 0.0
2018-Aug-13 06:00N 51°54' E 004°28'0 0.0
2018-Aug-13 05:30N 51°54' E 004°28'0 0.0
2018-Aug-13 05:00N 51°54' E 004°28'0 0.0
2018-Aug-13 04:30N 51°54' E 004°28'0 0.0
2018-Aug-13 04:00N 51°54' E 004°28'0 0.0
2018-Aug-13 03:30N 51°54' E 004°28'0 0.0
2018-Aug-13 03:00N 51°54' E 004°28'0 0.0
2018-Aug-13 02:30N 51°54' E 004°28'0 0.0
2018-Aug-13 02:00N 51°54' E 004°28'0 0.0
2018-Aug-13 01:30N 51°54' E 004°28'0 0.0
2018-Aug-13 01:00N 51°54' E 004°28'0 0.0
2018-Aug-13 00:30N 51°54' E 004°28'0 0.0
2018-Aug-13 00:00N 51°54' E 004°28'0 0.0
2018-Aug-12 23:30N 51°54' E 004°28'0 0.0
2018-Aug-12 23:00N 51°54' E 004°28'0 0.0
2018-Aug-12 22:30N 51°54' E 004°28'0 0.0
2018-Aug-12 22:00N 51°54' E 004°28'0 0.0
2018-Aug-12 21:30N 51°54' E 004°28'0 0.0
2018-Aug-12 21:00N 51°54' E 004°28'0 0.0
2018-Aug-12 20:30N 51°54' E 004°28'0 0.0
2018-Aug-12 20:00N 51°54' E 004°28'0 0.0
2018-Aug-12 19:30N 51°54' E 004°28'0 0.0
2018-Aug-12 19:00N 51°54' E 004°28'0 0.0
2018-Aug-12 18:30N 51°54' E 004°28'0 0.0
2018-Aug-12 18:00N 51°54' E 004°28'0 0.0
2018-Aug-12 17:30N 51°54' E 004°28'0 0.0
2018-Aug-12 16:57N 51°54' E 004°28'0 0.0
2018-Aug-12 16:30N 51°54' E 004°28'0 0.0
2018-Aug-12 16:00N 51°54' E 004°28'0 0.0
2018-Aug-12 15:30N 51°54' E 004°28'0 0.0
2018-Aug-12 15:00N 51°54' E 004°28'0 0.0
2018-Aug-12 14:30N 51°54' E 004°28'0 0.0
2018-Aug-12 14:00N 51°54' E 004°28'0 0.0
2018-Aug-12 13:30N 51°54' E 004°28'0 0.0
2018-Aug-12 13:00N 51°54' E 004°28'0 0.0
2018-Aug-12 12:30N 51°54' E 004°28'0 0.0
2018-Aug-12 12:00N 51°54' E 004°28'0 0.0
2018-Aug-12 11:30N 51°54' E 004°28'0 0.0
2018-Aug-12 11:00N 51°54' E 004°28'0 0.9
2018-Aug-12 10:29N 51°54' E 004°28'0 0.0
2018-Aug-12 09:59N 51°54' E 004°28'0 0.0
2018-Aug-12 09:29N 51°54' E 004°28'0 0.0
2018-Aug-12 08:59N 51°54' E 004°28'0 0.0
2018-Aug-12 08:29N 51°54' E 004°28'0 0.0
2018-Aug-12 07:59N 51°54' E 004°28'0 0.0
2018-Aug-12 07:29N 51°54' E 004°28'0 0.0
2018-Aug-12 06:59N 51°54' E 004°28'0 0.0
2018-Aug-12 06:29N 51°54' E 004°28'0 0.0
2018-Aug-12 05:59N 51°54' E 004°28'0 0.0
2018-Aug-12 05:29N 51°54' E 004°28'0 0.0
2018-Aug-12 04:59N 51°54' E 004°28'0 0.0
2018-Aug-12 04:29N 51°54' E 004°28'0 0.0
2018-Aug-12 03:59N 51°54' E 004°28'0 0.0
2018-Aug-12 03:29N 51°54' E 004°28'0 0.0
2018-Aug-12 02:59N 51°54' E 004°28'0 0.0
2018-Aug-12 02:29N 51°54' E 004°28'0 0.0
2018-Aug-12 01:59N 51°54' E 004°28'0 0.0
2018-Aug-12 01:29N 51°54' E 004°28'0 0.0
2018-Aug-12 00:59N 51°54' E 004°28'0 0.0
2018-Aug-12 00:29N 51°54' E 004°28'0 0.0
2018-Aug-11 23:59N 51°54' E 004°28'0 0.0
2018-Aug-11 23:29N 51°54' E 004°28'0 0.0
2018-Aug-11 22:59N 51°54' E 004°28'0 0.0
2018-Aug-11 22:29N 51°54' E 004°28'0 0.0
2018-Aug-11 21:59N 51°54' E 004°28'0 0.0
2018-Aug-11 21:29N 51°54' E 004°28'0 0.0
2018-Aug-11 20:59N 51°54' E 004°28'0 0.0
2018-Aug-11 20:29N 51°54' E 004°28'0 0.0
2018-Aug-11 19:59N 51°54' E 004°28'0 0.0
2018-Aug-11 19:29N 51°54' E 004°28'0 0.0
2018-Aug-11 18:59N 51°54' E 004°28'0 0.0
2018-Aug-11 18:29N 51°54' E 004°28'0 0.0
2018-Aug-11 17:59N 51°54' E 004°28'0 0.0
2018-Aug-11 17:29N 51°54' E 004°28'0 0.0
2018-Aug-11 16:59N 51°54' E 004°28'0 0.0
2018-Aug-11 16:29N 51°54' E 004°28'0 0.0
2018-Aug-11 15:59N 51°54' E 004°28'0 0.0
2018-Aug-11 15:29N 51°54' E 004°28'0 0.0
2018-Aug-11 14:59N 51°54' E 004°28'0 0.0
2018-Aug-11 14:29N 51°54' E 004°28'0 0.0
2018-Aug-11 13:59N 51°54' E 004°28'0 0.0
2018-Aug-11 13:29N 51°54' E 004°28'0 0.0
2018-Aug-11 12:59N 51°54' E 004°28'0 0.0
2018-Aug-11 12:29N 51°54' E 004°28'0 0.0
2018-Aug-11 11:59N 51°54' E 004°28'0 0.0
2018-Aug-11 11:29N 51°54' E 004°28'0 0.0
2018-Aug-11 10:59N 51°54' E 004°28'0 0.0
2018-Aug-11 10:29N 51°54' E 004°28'0 0.0
2018-Aug-11 09:59N 51°54' E 004°28'0 0.0
2018-Aug-11 09:29N 51°54' E 004°28'0 0.0
2018-Aug-11 08:59N 51°54' E 004°28'0 0.0
2018-Aug-11 08:29N 51°54' E 004°28'0 0.0
2018-Aug-11 07:59N 51°54' E 004°28'0 0.0
2018-Aug-11 07:29N 51°54' E 004°28'0 0.0
2018-Aug-11 06:59N 51°54' E 004°28'0 0.0
2018-Aug-11 06:29N 51°54' E 004°28'0 0.0
2018-Aug-11 05:59N 51°54' E 004°28'0 0.0
2018-Aug-11 05:29N 51°54' E 004°28'0 0.0
2018-Aug-11 04:59N 51°54' E 004°28'0 0.0
2018-Aug-11 04:29N 51°54' E 004°28'0 0.0
2018-Aug-11 03:59N 51°54' E 004°28'0 0.0
2018-Aug-11 03:29N 51°54' E 004°28'0 0.0
2018-Aug-11 03:00N 51°54' E 004°28'0 0.9
2018-Aug-11 02:30N 51°54' E 004°27'5 9.0
2018-Aug-11 02:00N 51°54' E 004°20'4 7.6
2018-Aug-11 01:30N 51°51' E 004°23'5 9.3
2018-Aug-11 01:00N 51°50' E 004°31'4 8.7
2018-Aug-11 00:30N 51°48' E 004°37'510.1
2018-Aug-11 00:00N 51°43' E 004°37'2 3.5
2018-Aug-10 23:28N 51°41' E 004°36'0 0.0
2018-Aug-10 22:58N 51°41' E 004°36'0 0.0
2018-Aug-10 22:28N 51°41' E 004°36'0 0.0
2018-Aug-10 21:58N 51°41' E 004°36'0 0.0
2018-Aug-10 21:28N 51°41' E 004°36'0 0.0
2018-Aug-10 20:58N 51°41' E 004°36'0 0.0
2018-Aug-10 20:28N 51°41' E 004°36'0 0.0
2018-Aug-10 19:58N 51°41' E 004°36'0 0.0
2018-Aug-10 19:28N 51°41' E 004°36'0 0.0
2018-Aug-10 18:58N 51°41' E 004°36'0 0.0
2018-Aug-10 18:28N 51°41' E 004°36'0 0.0
2018-Aug-10 17:58N 51°41' E 004°36'0 0.0
2018-Aug-10 17:28N 51°41' E 004°36'0 0.0
2018-Aug-10 16:58N 51°41' E 004°36'0 0.0
2018-Aug-10 16:28N 51°41' E 004°36'0 0.0
2018-Aug-10 15:58N 51°41' E 004°36'0 0.0
2018-Aug-10 15:28N 51°41' E 004°36'0 0.0
2018-Aug-10 14:58N 51°41' E 004°36'0 0.0
2018-Aug-10 14:28N 51°41' E 004°36'0 0.0
2018-Aug-10 13:58N 51°41' E 004°36'0 0.0
2018-Aug-10 13:28N 51°41' E 004°36'0 0.0
2018-Aug-10 12:55N 51°41' E 004°36'0 0.0
2018-Aug-10 12:25N 51°41' E 004°36'0 0.0
2018-Aug-10 11:58N 51°41' E 004°36'0 0.0
2018-Aug-10 11:25N 51°41' E 004°36'0 0.0
2018-Aug-10 10:55N 51°41' E 004°36'0 0.0
2018-Aug-10 10:25N 51°41' E 004°36'0 0.0
2018-Aug-10 09:49N 51°41' E 004°36'0 0.0
2018-Aug-10 09:28N 51°41' E 004°36'0 0.0
2018-Aug-10 08:55N 51°41' E 004°36'0 0.0
2018-Aug-10 08:28N 51°41' E 004°36'0 0.0
2018-Aug-10 07:58N 51°41' E 004°36'0 0.0
2018-Aug-10 07:28N 51°41' E 004°36'0 0.0
2018-Aug-10 06:58N 51°41' E 004°36'0 0.0
2018-Aug-10 06:28N 51°41' E 004°36'0 0.0
2018-Aug-10 05:58N 51°41' E 004°36'0 0.0
2018-Aug-10 05:28N 51°41' E 004°36'0 0.0
2018-Aug-10 04:58N 51°41' E 004°36'0 0.0
2018-Aug-10 04:28N 51°41' E 004°36'0 0.0
2018-Aug-10 03:58N 51°41' E 004°36'0 0.0
2018-Aug-10 03:25N 51°41' E 004°36'0 0.0
2018-Aug-10 02:58N 51°41' E 004°36'0 0.0
2018-Aug-10 02:28N 51°41' E 004°36'0 0.0
2018-Aug-10 01:58N 51°41' E 004°36'0 0.3
2018-Aug-10 01:30N 51°41' E 004°36'1 1.7
2018-Aug-10 01:00N 51°42' E 004°36'3 6.5
2018-Aug-10 00:30N 51°45' E 004°38'3 6.9
2018-Aug-10 00:00N 51°48' E 004°35'4 8.4
2018-Aug-09 23:30N 51°50' E 004°29'4 7.4
2018-Aug-09 23:00N 51°51' E 004°23'3 6.7
2018-Aug-09 22:30N 51°53' E 004°20'4 7.9
2018-Aug-09 22:00N 51°55' E 004°14'510.7
2018-Aug-09 21:30N 51°58' E 004°07'611.6
2018-Aug-09 21:00N 52°00' E 003°58'4 7.4
2018-Aug-09 20:30N 51°60' E 003°52'3 6.6
2018-Aug-09 20:00N 52°00' E 003°47'  

Dump ship's entire track history